Tiempo atmosférico en la estación meteorológica de Pamplona Aeropuerto, Navarra (459 m.)



Fecha
DESCASC
Temp. máxima en grados centígrados (hora)
DESCASC
Temp. mínima en grados centígrados (hora)
DESCASC
Temp. media en grados centígrados
DESCASC
Racha de viento máxima en m/sg (hora)
DESCASC
Velocidad máxima media en intervalos de 10 minutos(hora)
DESCASC
Precipitaciones diarias en mm
DESCASC
Precipitaciones de 00:00 a 06:00 en mm
DESCASC
Precipitaciones de 06:00 a 12:00 en mm
DESCASC
Precipitaciones de 12:00 a 18:00 en mm
DESCASC
Precipitaciones de 18:00 a 24:00 en mm
DESCASC
05-04-2020 19.7 (16:30) 8.7 (06:30) 14.2 13.33 (00:40) 8.61 (02:30) 0 0 0 0 0
04-04-2020 20.1 (15:50) -1.3 (07:50) 9.4 12.78 (17:00) 8.89 (22:50) 0 0 0 0 0
03-04-2020 15.4 (17:00) 2.7 (06:30) 9 10.28 (12:30) 7.5 (14:10) 0 0 0 0 0
02-04-2020 15.5 (14:30) 5.2 (00:00) 10.3 15 (17:30) 10.28 (17:30) 1.2 1.2 0 0 0
01-04-2020 10.8 (17:30) 6 (00:00) 8.4 5.83 (12:20) 3.61 (12:40) 10.1 0 0.2 4.6 5.3
31-03-2020 6.9 (19:20) -0.3 (00:00) 3.3 2.5 (01:10) 1.94 (04:20) 6.4 1.4 2.5 2.3 0.2
30-03-2020 -- (--) -- (--) -- -- (--) -- (--) -- 0 0 -- --
29-03-2020 14.3 (15:00) 1.8 (00:00) 8.1 13.89 (14:30) 9.44 (14:40) 0 0 0 0 0
28-03-2020 18.1 (15:30) -0.5 (-00:0) 8.8 8.33 (16:10) 5.83 (18:00) 0 0 0 0 0
27-03-2020 15.3 (14:40) -1.3 (-00:0) 7 9.17 (15:30) 6.11 (17:50) 0 0 0 0 0
26-03-2020 -- (--) -- (--) -- -- (--) -- (--) -- 0 -- -- 0
25-03-2020 15 (15:50) 3.3 (00:00) 9.1 10.28 (22:00) 7.5 (22:00) 0 0 0 0 0
24-03-2020 18.5 (16:20) 6.2 (00:00) 12.3 5.83 (13:00) 4.17 (19:00) 0 0 0 0 0
23-03-2020 16.5 (14:50) 8.3 (00:00) 12.4 7.78 (13:50) 5 (14:00) 2.6 2.4 0 0 0.2
22-03-2020 18.9 (15:10) 2.9 (05:20) 10.9 8.89 (16:30) 6.39 (15:30) 0 0 0 0 0
21-03-2020 16.6 (14:20) 3.8 (00:00) 10.2 9.17 (13:50) 7.22 (13:50) 0 0 0 0 0
20-03-2020 17 (16:00) 3.3 (00:00) 10.1 11.67 (14:40) 7.78 (16:10) 0 0 0 0 0
19-03-2020 18.4 (14:10) 5.2 (00:00) 11.8 10.28 (23:10) 6.11 (14:20) 0 0 0 0 0
18-03-2020 18.2 (16:20) 4.8 (00:00) 11.5 4.17 (17:20) 3.06 (17:30) 0 0 0 0 0
17-03-2020 12.5 (14:50) 7 (00:00) 9.8 7.78 (00:30) 5.28 (01:00) 0 0 0 0 0
16-03-2020 8.6 (23:50) 4.8 (00:00) 6.7 9.17 (17:50) 6.39 (17:20) 20.6 10.6 9.2 0.8 0
15-03-2020 21.4 (15:10) -1.1 (-00:0) 10.1 10.28 (21:10) 6.94 (21:10) 17.4 0 0 0 17.4
14-03-2020 14.2 (15:40) 1.4 (00:00) 7.8 10.28 (10:40) 6.94 (12:30) 0 0 0 0 0
13-03-2020 11.5 (12:40) 4.9 (23:59) 8.2 11.39 (00:50) 8.06 (01:50) 0 0 0 0 0
12-03-2020 17.1 (13:50) 7.9 (00:00) 12.5 12.5 (16:30) 9.17 (16:10) 2.1 0 0 0 2.1
11-03-2020 23.1 (16:20) 2.1 (00:00) 12.6 3.61 (17:30) 3.33 (20:50) 0 0 0 0 0
10-03-2020 19 (15:50) 2.8 (00:00) 10.9 6.67 (17:40) 4.72 (18:00) 0 0 0 0 0
09-03-2020 11.3 (12:20) 5.5 (00:00) 8.4 14.44 (12:30) 9.17 (12:30) 1.1 0.1 0 0.6 0.4

Gráficas

Temp. máximas Temp. mínimas Temp. medias Precipitaciones Rachas de viento máximas Velocidades máximas media en intervalos de 10 minutos

Datos horarios

Fecha y hora oficial Temperatura (ºC) Velocidad del viento (km/h) Dirección del viento Racha (km/h) Dirección de racha Precipitación (mm) Presión (hPa) Tendencia (hPa) Humedad (%)
2020-04-07 23:00:00 12.4 4 Oeste 13 Sudeste 0 971.9 0.8 84
2020-04-07 22:00:00 12.3 2 Sudeste 17 Sur 0 971.6 0.9 89
2020-04-07 21:00:00 13 10 Sur 18 Sudoeste 0 971.3 0.9 81
2020-04-07 20:00:00 13.3 5 Sudoeste 9 Sur 0 971.1 0.6 83
2020-04-07 19:00:00 13.4 7 Oeste 13 Oeste 0 970.7 0 85
2020-04-07 18:00:00 13.4 10 Oeste 15 Oeste 0 970.4 -0.5 84
2020-04-07 17:00:00 14 6 Noroeste 17 Sudeste 0 970.5 -0.9 81
2020-04-07 16:00:00 14.1 4 Sudoeste 18 Sudeste 0 970.7 -0.8 76
2020-04-07 15:00:00 13.7 9 Sudeste 15 Sudeste 0 970.9 -0.8 77
2020-04-07 14:00:00 13.2 9 Sudeste 17 Sudeste 0.6 971.4 -0.1 82
2020-04-07 13:00:00 11.7 4 Sudeste 9 Sudeste 0.5 971.5 0.5 86
2020-04-07 12:00:00 11.3 6 Noroeste 9 Noroeste 0.8 971.7 1.2 93
2020-04-07 11:00:00 11 4 Nordeste 8 Nordeste 0.7 971.5 1.5 95
2020-04-07 10:00:00 10.8 4 Norte 5 Nordeste 0.9 971 1.3 95
2020-04-07 09:00:00 10.7 0 Calma 5 Norte 0 970.5 0.8 95
2020-04-07 08:00:00 10.2 3 Nordeste 5 Sudoeste 0 970 0 98
2020-04-07 07:00:00 10.2 4 Sudoeste -- -- 0 969.7 -0.6 98
2020-04-07 06:00:00 10.1 6 Sudeste 9 Sudeste 0 969.7 -0.9 98
2020-04-07 05:00:00 9.9 3 Sur 5 Oeste 0 970 -0.6 97
2020-04-07 04:00:00 9.9 0 Calma 9 Oeste 0 970.3 -0.3 97
2020-04-07 03:00:00 10.2 4 Noroeste -- -- 0.1 970.6 0 97
2020-04-07 02:00:00 10.4 4 Oeste 8 Oeste 0 970.6 0 97
2020-04-07 01:00:00 10.4 6 Oeste 9 Oeste 0 970.6 0.1 96
2020-04-07 00:00:00 10.5 0 Calma 5 Nordeste 0 970.6 1 96
2020-04-06 23:00:00 10.8 3 Noroeste 8 Sudoeste 0.7 970.6 1.5 96
2020-04-06 22:00:00 10.7 2 Sudeste 5 Oeste 0.1 970.5 1.8 93
2020-04-06 21:00:00 10.8 3 Oeste 8 Oeste 0 969.6 1 94
2020-04-06 20:00:00 11.2 3 Oeste 9 Oeste 0 969.1 0.8 94
2020-04-06 19:00:00 11.2 4 Este 17 Norte 0.4 968.7 0.2 94
2020-04-06 18:00:00 11.6 13 Noroeste 22 Oeste 1.2 968.6 0.3 90
2020-04-06 17:00:00 15.3 10 Noroeste 15 Norte 0 968.3 -0.2 63
2020-04-06 16:00:00 15.1 11 Oeste 17 Oeste 0 968.5 0.1 65
2020-04-06 15:00:00 15.7 5 Norte 11 Noroeste 0 968.3 0.1 61
2020-04-06 14:00:00 14.4 5 Norte 11 Noroeste 0 968.5 -- 68
2020-04-06 13:00:00 12.2 4 Norte 15 Oeste 0 968.4 1.1 75
2020-04-06 12:00:00 12.2 6 Noroeste -- -- -- 968.2 1.4 78
2020-04-06 11:00:00 -- -- -- -- -- -- -- -- --
2020-04-06 10:00:00 9.7 10 Oeste 17 Oeste 0 967.3 1.7 87
2020-04-06 09:00:00 9.3 6 Noroeste 11 Noroeste 0 966.8 1.5 91
2020-04-06 08:00:00 9.1 8 Oeste 11 Oeste 0 966.2 1.2 91
2020-04-06 07:00:00 9.1 5 Oeste 11 Noroeste 0.1 965.6 0.6 94
2020-04-06 06:00:00 9.4 3 Norte 9 Este 0.3 965.3 0.5 94
2020-04-06 05:00:00 9.4 4 Nordeste 9 Noroeste 0.6 965 0.2 93
2020-04-06 04:00:00 10.3 9 Noroeste 15 Noroeste 0.2 965 0.5 87
2020-04-06 03:00:00 11 4 Oeste 11 Oeste 0 964.8 0.6 82
2020-04-06 02:00:00 11.7 6 Oeste 18 Sudeste 0 964.8 0.8 74
2020-04-06 01:00:00 13 8 Sudeste 18 Sur 0 964.5 1.1 59
2020-04-06 00:00:00 12.8 5 Este 13 Este 0 964.2 1.5 59
2020-04-05 23:00:00 13 8 Este 17 Este 0 964 1.8 59
2020-04-05 22:00:00 13.9 7 Este 18 Sur 0 963.4 1.4 55
2020-04-05 21:00:00 14.9 4 Nordeste 17 Sur 0 962.7 0.6 52
2020-04-05 20:00:00 16.2 11 Sudeste 35 Sur 0 962.2 -0.2 51
2020-04-05 19:00:00 18.1 13 Sur 26 Sudoeste 0 962 -1.2 47
2020-04-05 18:00:00 17.7 17 Sur 33 Sudeste 0 962.1 -1.5 47
2020-04-05 17:00:00 18.5 21 Sudeste 45 Sur 0 962.4 -1.8 44
2020-04-05 16:00:00 19.2 28 Sur 41 Sur 0 963.2 -1.5 41
2020-04-05 15:00:00 18.1 25 Sur 41 Sur 0 963.6 -1 43
2020-04-05 14:00:00 17.6 26 Sur 42 Sur 0 964.2 -0.6 42
2020-04-05 13:00:00 16.4 22 Sur 30 Sur 0 964.7 -0.1 41
2020-04-05 12:00:00 14 22 Sudeste 35 Sudeste 0 964.6 -0.1 46
2020-04-05 11:00:00 12.1 26 Sudeste 37 Sudeste 0 964.8 0.5 48
2020-04-05 10:00:00 10.4 18 Sudeste 33 Sudeste 0 964.8 0.7 54
2020-04-05 09:00:00 9.7 17 Sudeste 39 Sudeste 0 964.7 0.8 55
2020-04-05 08:00:00 9.2 14 Sudeste 32 Sudeste 0 964.3 0.4 56
2020-04-05 07:00:00 9 13 Sudeste 24 Sudeste 0 964.1 0.8 57
2020-04-05 06:00:00 9.1 9 Sudeste 30 Sudeste 0 963.9 0.4 55
2020-04-05 05:00:00 9.9 21 Sudeste 35 Sudeste 0 963.9 0 53
2020-04-05 04:00:00 10.3 13 Sudeste 37 Sudeste 0 963.3 -0.6 53
2020-04-05 03:00:00 10.9 28 Sudeste 45 Sudeste 0 963.5 -0.1 55
2020-04-05 02:00:00 10.7 18 Sudeste 30 Sudeste 0 963.9 0.5 62
2020-04-05 01:00:00 11.3 13 Sudeste 48 Sudeste 0 963.9 1.1 63
2020-04-05 00:00:00 12.2 20 Sudeste 37 Sudeste 0 963.6 1.2 60
2020-04-04 23:00:00 13.2 27 Sudeste 41 Sudeste 0 963.4 1.3 56
2020-04-04 22:00:00 13.1 26 Sudeste 37 Sudeste 0 962.8 0.9 54
2020-04-04 21:00:00 12.6 15 Sudeste 22 Sudeste 0 962.4 0.4 53
2020-04-04 20:00:00 15.7 18 Sur 37 Sur 0 962.1 -0.2 40
2020-04-04 19:00:00 17.4 24 Sur 39 Sur 0 961.9 -0.7 34
2020-04-04 18:00:00 19 28 Sur 41 Sudeste 0 962 -1.2 29
2020-04-04 17:00:00 19.1 28 Sur 46 Sur 0 962.3 -1.4 30
2020-04-04 16:00:00 19.5 24 Sur 41 Sur 0 962.6 -1.9 31
2020-04-04 15:00:00 19.5 21 Sur 39 Sudeste 0 963.2 -1.9 30
2020-04-04 14:00:00 18.7 19 Sur 39 Sur 0 963.7 -1.5 34
2020-04-04 13:00:00 17.4 20 Sur 35 Sur 0 964.5 -0.6 48
2020-04-04 12:00:00 13.6 6 Nordeste 13 Nordeste 0 965.1 0.1 60
2020-04-04 11:00:00 9.3 3 Nordeste 8 Nordeste 0 965.2 0.5 69
2020-04-04 10:00:00 5.7 2 Este 5 Sur 0 965.1 0.6 80
2020-04-04 09:00:00 2 3 Sur 9 Sur 0 965 0.5 92
2020-04-04 08:00:00 -1.3 0 Calma 5 Sudoeste 0 964.7 0.2 94
2020-04-04 07:00:00 -0.9 4 Sur 8 Sur 0 964.5 -0.1 93
2020-04-04 06:00:00 -0.1 2 Sudoeste 5 Sudoeste 0 964.5 -0.2 92
2020-04-04 05:00:00 -0.1 0 Calma 4 Oeste 0 964.5 -0.1 93
2020-04-04 04:00:00 0.3 2 Sur 8 Sur 0 964.6 -0.1 92
2020-04-04 03:00:00 1.3 0 Calma 8 Sur 0 964.7 0.3 90
2020-04-04 02:00:00 1.8 5 Sur 9 Sur 0 964.6 0.4 89
2020-04-04 01:00:00 2.7 6 Sur 11 Sur 0 964.7 0.8 87
2020-04-04 00:00:00 3.8 2 Sur 8 Oeste 0 964.4 1 83
2020-04-03 23:00:00 5.2 5 Oeste 11 Oeste 0 964.2 1.1 79
2020-04-03 22:00:00 6.9 8 Sudoeste 9 Sudoeste 0 963.9 1 73
2020-04-03 21:00:00 9.3 6 Norte 17 Norte 0 963.4 0.6 63
2020-04-03 20:00:00 11.7 15 Norte 28 Norte 0 963.1 0.2 52
2020-04-03 19:00:00 13.1 18 Norte 30 Noroeste 0 962.9 -0.5 47
2020-04-03 18:00:00 14.8 22 Noroeste 33 Noroeste 0 962.8 -1.1 43
2020-04-03 17:00:00 15.2 22 Noroeste 33 Noroeste 0 962.9 -1.4 42
2020-04-03 16:00:00 14.6 24 Noroeste 35 Noroeste 0 963.4 -1.3 44
2020-04-03 15:00:00 14.1 23 Noroeste 37 Noroeste 0 963.9 -1.2 46
2020-04-03 14:00:00 13.6 23 Noroeste 35 Noroeste 0 964.3 -0.9 48
2020-04-03 13:00:00 12.4 27 Noroeste 37 Noroeste 0 964.7 -0.3 50
2020-04-03 12:00:00 11.3 21 Norte 33 Norte 0 965.1 0.2 55
2020-04-03 11:00:00 10 18 Norte 30 Norte 0 965.2 0.5 60
2020-04-03 10:00:00 7.3 13 Norte 18 Norte 0 965 0.6 72
2020-04-03 09:00:00 6.1 13 Noroeste 18 Noroeste 0 964.9 0.6 76
2020-04-03 08:00:00 4 13 Noroeste 17 Noroeste 0 964.7 0.5 82
2020-04-03 07:00:00 2.9 7 Oeste 13 Oeste 0 964.4 0.1 83
2020-04-03 06:00:00 3.1 11 Noroeste 17 Noroeste 0 964.3 -0.3 82
2020-04-03 05:00:00 3.7 10 Noroeste 22 Norte 0 964.2 -0.6 78
2020-04-03 04:00:00 4.5 16 Norte 24 Norte 0 964.3 -0.5 74
2020-04-03 03:00:00 4.1 11 Noroeste 18 Norte 0 964.6 -0.1 75
2020-04-03 02:00:00 4.8 9 Noroeste 24 Norte 0 964.8 0.4 71
2020-04-03 01:00:00 5 11 Noroeste 28 Norte 0 964.8 1 70
2020-04-03 00:00:00 5.4 13 Noroeste 22 Norte 0 964.7 2.1 70
2020-04-02 23:00:00 5.8 13 Norte 26 Norte 0 964.4 2.7 70
2020-04-02 22:00:00 6.5 18 Norte 28 Norte 0 963.8 2.6 65
2020-04-02 21:00:00 8.1 21 Noroeste -- -- -- 962.6 2 61
2020-04-02 20:00:00 10.5 27 Norte 42 Norte 0 961.7 1.4 57
2020-04-02 19:00:00 12.2 25 Norte 48 Norte 0 961.2 0.9 53
2020-04-02 18:00:00 13.3 30 Norte 54 Noroeste 0 960.6 0.7 54
2020-04-02 17:00:00 13.4 24 Norte 41 Norte 0 960.3 0.3 53
2020-04-02 16:00:00 13.4 26 Norte 46 Norte 0 960.3 0.2 57
2020-04-02 15:00:00 13.5 27 Norte 42 Noroeste 0 959.9 -0.2 58
2020-04-02 14:00:00 14.3 28 Noroeste 41 Norte 0 960 0.3 58
2020-04-02 13:00:00 13.9 25 Norte 42 Norte 0 960.1 0.7 62
2020-04-02 12:00:00 13.4 24 Noroeste 35 Noroeste 0 960.1 0.9 67
2020-04-02 11:00:00 12.4 23 Noroeste 30 Noroeste 0 959.7 0.7 75
2020-04-02 10:00:00 9 11 Noroeste 17 Noroeste 0 959.4 0.4 91
2020-04-02 09:00:00 6.6 4 Oeste 9 Oeste 0 959.2 0.3 98
2020-04-02 08:00:00 5.5 4 Sur 5 Sur 0 959 -0.2 98
2020-04-02 07:00:00 5.8 0 Calma 5 Noroeste 0 959 -0.6 98
2020-04-02 06:00:00 6.8 -- -- -- -- 0 958.9 -1.1 98
2020-04-02 05:00:00 7.5 0 Calma 5 Nordeste 0 959.2 -1 97
2020-04-02 04:00:00 7.5 2 Este 5 Sudeste 0 959.6 -0.8 97
2020-04-02 03:00:00 7.7 3 Noroeste 8 Noroeste 0 960 -0.7 98
2020-04-02 02:00:00 7.8 6 Noroeste 8 Noroeste 0.3 960.2 -0.4 97
2020-04-02 01:00:00 7.9 3 Norte 8 Oeste 0.9 960.4 0 97
2020-04-02 00:00:00 8.1 4 Noroeste 9 Noroeste 1.6 960.7 0.9 97
2020-04-01 23:00:00 8.2 6 Norte 9 Norte 2.1 960.6 1 97
2020-04-01 22:00:00 8.8 5 Noroeste 8 Noroeste 1.3 960.4 0.8 96
2020-04-01 21:00:00 9.1 3 Oeste 9 Oeste 0.3 959.8 0.1 94
2020-04-01 20:00:00 10 5 Oeste 8 Oeste 0 959.6 -0.3 91
2020-04-01 19:00:00 10.1 5 Nordeste 15 Nordeste 0 959.6 -0.6 89
2020-04-01 18:00:00 10.3 11 Nordeste 15 Nordeste 0.2 959.7 -0.9 88
2020-04-01 17:00:00 10.3 6 Nordeste 11 Nordeste 0.2 959.9 -0.9 88
2020-04-01 16:00:00 10 4 Nordeste 9 Sur 1 960.2 -0.7 88
2020-04-01 15:00:00 10.4 6 Sudoeste 11 Sur 2.3 960.6 -0.6 86
2020-04-01 14:00:00 10.4 9 Sur 17 Sur 0.9 960.8 -0.4 87
2020-04-01 13:00:00 9.8 9 Sur -- -- -- 960.9 0.1 87
2020-04-01 12:00:00 8.8 3 Oeste 9 Noroeste 0 961.2 0.7 90
2020-04-01 11:00:00 8.6 8 Sudoeste 13 Sur 0.2 961.2 1.3 88
2020-04-01 10:00:00 8.3 10 Sur 13 Sur 0 960.8 1 90
2020-04-01 09:00:00 7.1 2 Este 9 Sudoeste 0 960.5 0.6 94
2020-04-01 08:00:00 6.9 0 Calma 9 Noroeste 0 959.9 -0.3 92
2020-04-01 07:00:00 6.6 8 Oeste 11 Oeste 0 959.8 -0.6 94
2020-04-01 06:00:00 6.4 7 Oeste 9 Oeste 0 959.9 -0.9 95
2020-04-01 05:00:00 6.3 6 Oeste 11 Sudoeste 0 960.2 -0.6 95
2020-04-01 04:00:00 6.6 6 Oeste 13 Oeste 0 960.4 -0.7 94
2020-04-01 03:00:00 6.3 5 Noroeste 8 Noroeste 0 960.8 -0.5 97
2020-04-01 02:00:00 6.2 3 Nordeste 8 Sudoeste 0 960.8 -0.4 97
2020-04-01 01:00:00 6 3 Oeste 8 Oeste 0 961.1 0.1 97
2020-04-01 00:00:00 6.1 5 Oeste 8 Oeste 0 961.3 0.8 96
2020-03-31 23:00:00 6.3 4 Oeste 5 Oeste 0.1 961.2 1.1 95
2020-03-31 22:00:00 6.4 0 Calma 4 Este 0.1 961 1.1 94
2020-03-31 21:00:00 6.4 2 Sudeste 5 Sudoeste 0 960.5 0.5 93
2020-03-31 20:00:00 6.6 0 Calma 5 Oeste 0 960.1 0.2 91
2020-03-31 19:00:00 6.7 2 Noroeste 5 Noroeste 0 959.9 -0.1 92
2020-03-31 18:00:00 6.5 2 Norte 5 Norte 0.5 960 -0.3 90
2020-03-31 17:00:00 6.7 0 Calma 8 Oeste 0.3 959.9 -0.6 86
2020-03-31 16:00:00 6.6 4 Noroeste 8 Noroeste 0.3 960 -0.7 87
2020-03-31 15:00:00 4.9 2 Nordeste 8 Este 0.5 960.3 -0.4 87
2020-03-31 14:00:00 4.3 2 Nordeste 5 Nordeste 0.1 960.5 -0.3 87
2020-03-31 13:00:00 3.5 2 Oeste 5 Oeste 0.6 960.7 0.2 91
2020-03-31 12:00:00 2.1 0 Calma 5 Sudeste 0.5 960.7 0.2 90
2020-03-31 11:00:00 1.4 0 Calma 4 Sudeste 0 960.8 0.5 93
2020-03-31 10:00:00 0.5 0 Calma 4 Oeste 0.3 960.5 0.6 96
2020-03-31 09:00:00 0.2 0 Calma 4 Oeste 0.1 960.5 0.4 97
2020-03-31 08:00:00 -0.1 2 Oeste 4 Oeste 0.7 960.3 -0.4 97
2020-03-31 07:00:00 -0.2 2 Oeste -- -- 0.9 959.9 -1 97
2020-03-31 06:00:00 -0.2 -- -- -- -- 1.1 960.1 -1.3 96
2020-03-31 05:00:00 0 0 Calma 9 Este 0.3 960.7 -1 94
2020-03-31 04:00:00 0.8 7 Este 8 Este 0 960.9 -1.2 87
2020-03-31 03:00:00 0.4 2 Noroeste 5 Noroeste 0 961.4 -1.2 88
2020-03-31 02:00:00 0 0 Calma 9 Oeste 0 961.7 -0.9 86
2020-03-31 01:00:00 -0.1 4 Oeste 8 Oeste 0 962.1 -0.6 86
2020-03-31 00:00:00 1 5 Noroeste 11 Noroeste 0 962.6 0.1 80
2020-03-30 23:00:00 1.2 8 Noroeste 18 Norte 0 962.6 0.4 81
2020-03-30 22:00:00 1.3 11 Norte 15 Norte 0 962.7 0.6 78
2020-03-30 21:00:00 1.9 10 Noroeste 22 Noroeste 0 962.5 -- 74
2020-03-30 20:00:00 3.3 17 Noroeste 28 Noroeste 0 962.2 -- 65
2020-03-30 19:00:00 4.6 15 Norte -- -- -- 962.1 -- 57
2020-03-30 18:00:00 -- -- -- -- -- -- -- -- --
2020-03-30 17:00:00 -- -- -- -- -- -- -- -- --
2020-03-30 16:00:00 -- -- -- -- -- -- -- -- --
2020-03-30 15:00:00 4.9 21 Noroeste 33 Noroeste 0 963.7 -0.8 59
2020-03-30 14:00:00 4.5 22 Norte 33 Noroeste 0 964.2 -0.9 56
2020-03-30 13:00:00 5.2 19 Norte 41 Norte 0 964.3 -0.6 52
2020-03-30 12:00:00 5.2 21 Norte 37 Noroeste 0 964.5 -0.3 52
2020-03-30 11:00:00 4.4 23 Noroeste 37 Noroeste 0 965.1 0.3 60
2020-03-30 10:00:00 3.4 22 Noroeste 33 Noroeste 0 964.9 0.2 66
2020-03-30 09:00:00 1.8 23 Noroeste 32 Noroeste 0 964.8 -0.3 70
2020-03-30 08:00:00 -0.1 15 Noroeste 28 Noroeste 0 964.8 -0.4 77
2020-03-30 07:00:00 0.4 19 Norte 33 Norte 0 964.7 -1.3 72
2020-03-30 06:00:00 1.7 21 Norte 39 Norte 0 965.1 -1.2 70
2020-03-30 05:00:00 2 26 Norte 46 Norte 0 965.2 -1 70
2020-03-30 04:00:00 2.1 26 Norte 45 Norte 0 966 0 77
2020-03-30 03:00:00 2.3 27 Norte 39 Norte 0 966.3 0.3 81
2020-03-30 02:00:00 2.6 26 Norte 41 Noroeste 0 966.2 0.6 82
2020-03-30 01:00:00 4.1 25 Norte 37 Norte 0 966 0.4 81
2020-03-30 00:00:00 5.6 25 Norte 39 Norte 0 966 0.6 79
2020-03-29 23:00:00 6.5 24 Norte 37 Norte 0 965.6 0.2 81
2020-03-29 22:00:00 7 21 Noroeste 33 Noroeste 0 965.6 0.5 85
2020-03-29 21:00:00 7.6 22 Noroeste -- -- -- 965.4 0.5 82
2020-03-29 20:00:00 8.1 27 Norte 41 Norte 0 965.4 0.3 77
2020-03-29 19:00:00 9.1 28 Norte 45 Norte 0 965.1 0.1 70
2020-03-29 18:00:00 10.1 22 Norte 46 Norte 0 964.9 -0.4 69
2020-03-29 17:00:00 10.1 28 Norte 45 Norte 0 965.1 -0.6 69
2020-03-29 16:00:00 12 31 Norte 50 Norte 0 965 -1.1 58
2020-03-29 15:00:00 13.8 30 Noroeste 50 Norte 0 965.3 -0.9 52
2020-03-29 14:00:00 13.2 31 Norte 46 Norte 0 965.7 -0.7 51
2020-03-29 13:00:00 12.7 28 Norte 42 Noroeste 0 966.1 -0.5 51
2020-03-29 12:00:00 12.1 29 Norte -- -- -- 966.2 -0.5 50
2020-03-29 11:00:00 10.5 21 Norte 30 Norte 0 966.4 -0.2 59
2020-03-29 10:00:00 8.4 17 Noroeste 24 Noroeste 0 966.6 0.4 70
2020-03-29 09:00:00 5.7 12 Noroeste 17 Norte 0 966.7 0.5 80
2020-03-29 08:00:00 2.1 3 Norte 15 Norte 0 966.6 0.4 88
2020-03-29 07:00:00 2.5 4 Noroeste 15 Noroeste 0 966.2 -0.4 86
2020-03-29 06:00:00 3.4 9 Noroeste 13 Noroeste 0 966.2 -0.7 81
2020-03-29 05:00:00 3.7 8 Noroeste 11 Norte 0 966.2 -0.7 80
2020-03-29 03:00:00 5 7 Noroeste 11 Norte 0 966.9 0.1 70
2020-03-29 01:00:00 5.8 7 Norte 11 Norte 0 966.9 0.3 67
2020-03-29 00:00:00 6.6 6 Norte 13 Norte 0 966.8 0.6 65
2020-03-28 23:00:00 7.2 9 Noroeste 22 Norte 0 966.8 1.6 66
2020-03-28 22:00:00 7.5 14 Noroeste 18 Noroeste 0 966.6 2.1 66
2020-03-28 21:00:00 9.2 10 Noroeste 15 Noroeste 0 966.2 2.5 62
2020-03-28 20:00:00 11.4 6 Norte 22 Norte 0 965.2 1.8 53
2020-03-28 19:00:00 13.2 15 Norte 28 Norte 0 964.5 1.1 52
2020-03-28 18:00:00 15 21 Norte 30 Norte 0 963.7 0 47
2020-03-28 17:00:00 16.4 16 Norte 30 Nordeste 0 963.4 -0.9 41
2020-03-28 16:00:00 17.2 16 Norte 26 Norte 0 963.4 -1.4 37
2020-03-28 15:00:00 17.4 11 Norte 24 Noroeste 0 963.7 -1.7 35
2020-03-28 14:00:00 17.2 9 Noroeste 21 Noroeste 0 964.3 -1.4 38
2020-03-28 13:00:00 14.8 6 Nordeste 15 Noroeste 0 964.8 -1.1 45
2020-03-28 12:00:00 13.3 5 Oeste 9 Oeste 0 965.4 -0.2 51
2020-03-28 11:00:00 10.1 4 Noroeste 13 Norte 0 965.7 0.4 59
2020-03-28 10:00:00 6.5 3 Nordeste 9 Norte 0 965.9 1.1 73
2020-03-28 09:00:00 3.8 3 Oeste 5 Noroeste 0 965.6 1.1 84
2020-03-28 08:00:00 1.4 5 Sur 8 Sur 0 965.3 1.2 91
2020-03-28 07:00:00 -0.4 5 Sudeste 9 Nordeste 0 964.8 1.1 93
2020-03-28 06:00:00 0.2 4 Norte 5 Norte 0 964.5 0.6 91
2020-03-28 05:00:00 0.5 4 Sur 5 Sur 0 964.1 0.3 91
2020-03-28 04:00:00 0.8 3 Sudeste 9 Sur 0 963.7 0.2 91
2020-03-28 03:00:00 1.3 9 Sur 11 Sur 0 963.9 0.5 90
2020-03-28 02:00:00 2.7 6 Sudeste 9 Sudeste 0 963.8 0.8 86
2020-03-28 01:00:00 3.7 2 Sudoeste 8 Sur 0 963.5 0.6 83
2020-03-28 00:00:00 4.6 2 Norte 17 Noroeste 0 963.4 1 78
2020-03-27 23:00:00 5.5 8 Noroeste 17 Noroeste 0 963 1.4 75
2020-03-27 22:00:00 6.1 12 Noroeste 15 Noroeste 0 962.9 2.1 74
2020-03-27 21:00:00 7 10 Noroeste 17 Noroeste 0 962.4 2.3 70
2020-03-27 20:00:00 8.4 9 Norte 17 Noroeste 0 961.6 2 61
2020-03-27 19:00:00 10.9 15 Nordeste 28 Norte 0 960.8 1.1 47
2020-03-27 18:00:00 12.5 22 Noroeste 32 Noroeste 0 960.1 0.2 38
2020-03-27 17:00:00 14.3 19 Noroeste 30 Norte 0 959.6 -0.8 35
2020-03-27 16:00:00 14.1 15 Norte 33 Noroeste 0 959.7 -1 37
2020-03-27 15:00:00 13.8 11 Noroeste 26 Noroeste 0 959.9 -1.5 37
2020-03-27 14:00:00 13.4 10 Noroeste 28 Noroeste 0 960.4 -1.5 39
2020-03-27 13:00:00 12.9 8 Noroeste 24 Noroeste 0 960.7 -1.2 40
2020-03-27 12:00:00 11.4 4 Norte 17 Noroeste 0 961.4 -0.6 48
2020-03-27 11:00:00 8.9 5 Noroeste 11 Oeste 0 961.9 0.1 57
2020-03-27 10:00:00 6.2 4 Norte 8 Noroeste 0 961.9 0.3 65
2020-03-27 09:00:00 3.4 5 Sur 8 Sudoeste 0 962 1 75
2020-03-27 08:00:00 0.3 3 Nordeste 5 Nordeste 0 961.8 1.1 88
2020-03-27 07:00:00 -1.2 5 Sur 8 Sur 0 961.6 1.4 90
2020-03-27 06:00:00 -1 8 Nordeste 11 Nordeste 0 961 0.5 91
2020-03-27 05:00:00 0 9 Sur 11 Sur 0 960.7 0.2 87
2020-03-27 04:00:00 1.4 2 Nordeste 5 Sur 0 960.2 -0.2 85
2020-03-27 03:00:00 2.4 3 Sur 8 Nordeste 0 960.5 0.2 81
2020-03-27 02:00:00 2.2 0 Calma -- -- -- 960.5 0.1 80
2020-03-27 01:00:00 1.9 4 Sudoeste 9 Sur 0 960.4 0.1 81
2020-03-27 00:00:00 1.7 2 Este 13 Norte 0 960.3 0.6 73
2020-03-26 23:00:00 2.8 9 Noroeste 24 Norte 0 960.4 1.5 67
2020-03-26 22:00:00 3.5 14 Norte 28 Norte 0 960.3 1.7 64
2020-03-26 21:00:00 4.2 18 Norte 26 Norte 0 959.7 1.4 61
2020-03-26 20:00:00 4.8 14 Norte 28 Norte 0 958.9 1.2 55
2020-03-26 19:00:00 6.3 22 Norte 37 Norte 0 958.6 1.6 45
2020-03-26 18:00:00 7.7 24 Norte 42 Norte 0 958.3 1.2 42
2020-03-26 17:00:00 8.5 23 Norte 42 Norte 0 957.7 -- 39
2020-03-26 16:00:00 9.9 24 Norte 42 Norte 0 957 -- 35
2020-03-26 15:00:00 10.1 30 Norte -- -- -- 957.1 -- 33
2020-03-26 14:00:00 -- -- -- -- -- -- -- -- --
2020-03-26 13:00:00 -- -- -- -- -- -- -- -- --
2020-03-26 12:00:00 -- -- -- -- -- -- -- -- --
2020-03-26 11:00:00 8.8 37 Norte 59 Norte 0 957.5 0.4 50
2020-03-26 10:00:00 8.9 39 Norte 59 Noroeste 0 957.2 0.2 47
2020-03-26 09:00:00 7.3 26 Norte 42 Norte 0 956.9 -0.3 62
2020-03-26 08:00:00 7.2 21 Norte 33 Norte 0 957.1 -0.3 64
2020-03-26 07:00:00 6.9 19 Norte 37 Norte 0 957 -1 67
2020-03-26 06:00:00 6.3 12 Noroeste 18 Norte 0 957.2 -1.7 83
2020-03-26 05:00:00 5.7 10 Noroeste 18 Norte 0 957.4 -2.2 87
2020-03-26 04:00:00 5.3 7 Oeste 11 Oeste 0 958 -2.2 87
2020-03-26 03:00:00 5.4 8 Noroeste 18 Noroeste 0 958.9 -1.7 82
2020-03-26 02:00:00 5.3 8 Norte 17 Norte 0 959.6 -1.7 79
2020-03-26 01:00:00 4.3 4 Sudoeste 13 Norte 0 960.2 -0.8 79
2020-03-26 00:00:00 4 9 Noroeste 17 Norte 0 960.6 -0.3 76
2020-03-25 23:00:00 4.6 13 Norte 30 Norte 0 961.3 1 73
2020-03-25 22:00:00 5.8 27 Norte 37 Norte 0 961 1.5 69
2020-03-25 21:00:00 7.2 14 Noroeste 21 Norte 0 960.9 1.4 71
2020-03-25 20:00:00 8.7 12 Oeste 28 Noroeste 0 960.3 0.7 69
2020-03-25 19:00:00 12.1 14 Oeste 26 Sur 0 959.5 -0.6 63
2020-03-25 18:00:00 12 13 Sur 22 Sudoeste 0 959.5 -1.4 67
2020-03-25 17:00:00 13.8 14 Sudoeste 26 Oeste 0 959.6 -2 57
2020-03-25 16:00:00 14.5 15 Sudoeste 26 Oeste 0 960.1 -2.1 55
2020-03-25 15:00:00 14.2 17 Sur 26 Sudoeste 0 960.9 -1.8 58
2020-03-25 14:00:00 13.7 13 Sudoeste 33 Sur 0 961.6 -1.1 59
2020-03-25 13:00:00 12.7 23 Sur 33 Sur 0 962.2 -0.4 65
2020-03-25 12:00:00 10.1 24 Sur 32 Sur 0 962.7 -0.1 75
2020-03-25 11:00:00 9.4 16 Sur 28 Sudoeste 0 962.7 -0.2 78
2020-03-25 10:00:00 8.8 17 Sur 26 Sudoeste 0 962.6 -0.1 80
2020-03-25 09:00:00 8.4 12 Sudoeste 21 Sudoeste 0 962.8 0.1 84
2020-03-25 08:00:00 7.3 11 Sur 17 Sur 0 962.9 -0.1 89
2020-03-25 07:00:00 6 4 Sudoeste 9 Oeste 0 962.7 -0.5 91
2020-03-25 06:00:00 4.8 3 Sudeste 8 Oeste 0 962.7 -0.9 93
2020-03-25 05:00:00 4 5 Este 9 Sudeste 0 963 -0.4 93
2020-03-25 04:00:00 3.5 0 Calma 9 Este 0 963.2 0 92
2020-03-25 03:00:00 3.9 4 Este 8 Sudeste 0 963.6 0.3 91
2020-03-25 02:00:00 4.7 0 Calma 15 Sur 0 963.4 0 90
2020-03-25 01:00:00 5.2 8 Sudeste 11 Sudeste 0 963.2 -0.3 90
2020-03-25 00:00:00 6.3 8 Sudeste 9 Sudeste 0 963.3 0 88
2020-03-24 23:00:00 7.9 8 Oeste 13 Noroeste 0 963.4 0.5 85
2020-03-24 22:00:00 9.3 7 Noroeste 11 Noroeste 0 963.5 0.9 80
2020-03-24 21:00:00 10.3 4 Oeste 11 Nordeste 0 963.3 0.8 78
2020-03-24 20:00:00 12 10 Nordeste 18 Oeste 0 962.9 0.4 63
2020-03-24 19:00:00 14.4 15 Oeste 21 Oeste 0 962.6 -0.3 66
2020-03-24 18:00:00 15.1 10 Oeste 13 Oeste 0 962.5 -1.2 64
2020-03-24 17:00:00 17.3 10 Oeste 17 Oeste 0 962.5 -2.1 54
2020-03-24 16:00:00 17.7 7 Sudoeste 17 Oeste 0 962.9 -2.7 50
2020-03-24 15:00:00 17.2 6 Oeste 15 Oeste 0 963.7 -2.5 51
2020-03-24 14:00:00 16.4 8 Oeste 17 Oeste 0 964.6 -1.9 56
2020-03-24 13:00:00 14.4 14 Oeste 21 Oeste 0 965.6 -1.1 64
2020-03-24 12:00:00 15.2 12 Sur 18 Sur 0 966.2 -0.6 62
2020-03-24 11:00:00 13.4 4 Oeste 13 Oeste 0 966.5 -0.2 70
2020-03-24 10:00:00 11.4 6 Norte 9 Norte 0 966.7 0.4 80
2020-03-24 09:00:00 10.1 2 Este 8 Norte 0 966.8 0.6 87
2020-03-24 08:00:00 8.8 0 Calma 5 Este 0 966.7 0.9 94
2020-03-24 07:00:00 8.2 3 Sur 8 Este 0 966.3 0.3 94
2020-03-24 06:00:00 8.2 5 Sudeste 9 Sudeste 0 966.2 0 95
2020-03-24 05:00:00 8.7 3 Sudoeste 8 Oeste 0 965.8 -0.6 95
2020-03-24 04:00:00 8.6 3 Este 8 Sudeste 0 966 -0.3 94
2020-03-24 03:00:00 8.7 3 Nordeste 8 Nordeste 0 966.2 -0.3 94
2020-03-24 02:00:00 8.8 3 Sudeste 8 Nordeste 0 966.4 -0.1 93
2020-03-24 01:00:00 8.7 4 Norte 8 Oeste 0 966.3 0 94
2020-03-24 00:00:00 9.9 0 Calma 8 Este 0 966.5 0.5 90
2020-03-23 23:00:00 10 3 Nordeste 9 Este 0 966.5 1 86
2020-03-23 22:00:00 10.4 6 Este 9 Sudeste 0.2 966.3 1.4 85
2020-03-23 21:00:00 10.8 6 Este 15 Este 0 966 1.8 84
2020-03-23 20:00:00 10.8 9 Este 17 Este 0 965.5 1.8 82
2020-03-23 19:00:00 12.4 6 Sudeste 21 Sudeste 0 964.9 1.2 73
2020-03-23 18:00:00 13.9 9 Sudeste 13 Sudeste 0 964.2 0.2 71
2020-03-23 17:00:00 15.5 7 Noroeste 15 Oeste 0 963.7 -0.8 62
2020-03-23 16:00:00 14 8 Oeste 17 Sudoeste 0 963.7 -1.3 70
2020-03-23 15:00:00 15.4 4 Sur 17 Oeste 0 964 -1.4 57
2020-03-23 14:00:00 13.9 18 Sudoeste 28 Sur 0 964.5 -1 75
2020-03-23 13:00:00 15.8 5 Este 15 Nordeste 0 965 -0.5 57
2020-03-23 12:00:00 14.5 8 Nordeste 17 Nordeste 0 965.4 0.3 65
2020-03-23 11:00:00 13 3 Este 8 Norte 0 965.5 0.9 76
2020-03-23 10:00:00 10.6 3 Noroeste 8 Oeste 0 965.5 1.4 87
2020-03-23 09:00:00 9.6 4 Oeste 8 Oeste 0 965.1 1.3 92
2020-03-23 08:00:00 8.6 3 Oeste -- -- 0 964.6 1.1 95
2020-03-23 07:00:00 8.4 5 Oeste 5 Oeste 0 964.1 0.7 94
2020-03-23 06:00:00 8.5 3 Oeste 8 Noroeste 0 963.8 0.4 96
2020-03-23 05:00:00 8.7 4 Noroeste 8 Noroeste 0 963.5 0.1 96
2020-03-23 04:00:00 8.7 5 Oeste 8 Oeste 0 963.4 0.2 94
2020-03-23 03:00:00 8.9 5 Oeste 11 Oeste 0.7 963.4 0.2 94
2020-03-23 02:00:00 9.2 3 Norte 8 Oeste 1.7 963.4 0.7 94
2020-03-23 01:00:00 9.6 4 Nordeste 11 Este 0 963.2 0.8 90
2020-03-23 00:00:00 9.5 3 Sudeste 8 Nordeste 0 963.2 1.4 86
2020-03-22 23:00:00 9.7 5 Noroeste 9 Noroeste 0 962.7 1.8 83
2020-03-22 22:00:00 10.6 8 Oeste 21 Noroeste 0 962.4 2.3 77
2020-03-22 21:00:00 11.2 14 Noroeste 22 Norte 0 961.8 2.4 75
2020-03-22 20:00:00 11.8 19 Norte 26 Norte 0 960.9 2 73
2020-03-22 19:00:00 13.4 12 Noroeste 24 Norte 0 960.1 1.4 67
2020-03-22 18:00:00 15.3 15 Norte 26 Norte 0 959.4 0.5 57
2020-03-22 17:00:00 17.5 17 Sur 32 Sur 0 958.9 -0.4 49
2020-03-22 16:00:00 17.8 22 Sur 30 Sur 0 958.7 -1 50
2020-03-22 15:00:00 18.5 10 Sur 21 Sur 0 958.9 -1.1 42
2020-03-22 14:00:00 17.8 7 Sudoeste 15 Sudoeste 0 959.3 -1 43
2020-03-22 13:00:00 16.8 5 Oeste 13 Sudoeste 0 959.7 -0.5 48
2020-03-22 12:00:00 15 4 Sur 9 Sudoeste 0 960 0 56
2020-03-22 11:00:00 12.3 4 Noroeste -- -- -- 960.3 0.6 61
2020-03-22 10:00:00 8.7 0 Calma 8 Oeste 0 960.2 0.9 78
2020-03-22 09:00:00 6 3 Este 5 Este 0 960 0.7 89
2020-03-22 08:00:00 4.4 6 Oeste 8 Oeste 0 959.7 0.5 93
2020-03-22 07:00:00 3.6 0 Calma -- -- 0 959.3 0.1 93
2020-03-22 06:00:00 3.4 3 Este -- -- 0 959.3 0.1 93
2020-03-22 05:00:00 3.3 6 Sur 9 Sur 0 959.2 0 92
2020-03-22 04:00:00 3.4 6 Este 8 Este 0 959.2 0 89
2020-03-22 03:00:00 3.5 3 Sudoeste 5 Oeste 0 959.2 -0.1 92
2020-03-22 02:00:00 4.2 3 Sudoeste 5 Sudoeste 0 959.2 -0.1 90
2020-03-22 01:00:00 5.7 2 Sur 5 Sur 0 959.2 0.2 86
2020-03-22 00:00:00 6.2 3 Sudoeste 8 Sudoeste 0 959.3 0.6 84
2020-03-21 23:00:00 6.7 0 Calma 8 Sur 0 959.3 1.1 81
2020-03-21 22:00:00 8 5 Sudeste 13 Sudoeste 0 959 1.3 76
2020-03-21 21:00:00 8.6 6 Nordeste 13 Sur 0 958.7 1.3 74
2020-03-21 20:00:00 10.5 14 Sur 18 Sur 0 958.2 0.8 63
2020-03-21 19:00:00 12.6 11 Sudoeste 21 Sudoeste 0 957.7 0 57
2020-03-21 18:00:00 14.9 15 Sudoeste 28 Sudoeste 0 957.4 -0.9 51
2020-03-21 17:00:00 16 19 Sudoeste 32 Sur 0 957.4 -1.5 47
2020-03-21 16:00:00 16.1 21 Sudoeste 32 Sudoeste 0 957.7 -2.1 47
2020-03-21 15:00:00 16.3 23 Sudoeste 32 Sudoeste 0 958.3 -2.3 47
2020-03-21 14:00:00 16 24 Sudoeste 33 Sudoeste 0 958.9 -2.1 44
2020-03-21 13:00:00 15.8 18 Sudoeste 26 Sur 0 959.8 -1.7 49
2020-03-21 12:00:00 14.3 13 Sudoeste 24 Sudoeste 0 960.6 -0.9 54
2020-03-21 11:00:00 12.9 6 Sur 13 Sur 0 961 -0.6 56
2020-03-21 10:00:00 9.7 4 Noroeste 8 Noroeste 0 961.5 -0.1 73
2020-03-21 09:00:00 6.8 0 Calma 8 Nordeste 0 961.5 -0.3 83
2020-03-21 08:00:00 5 0 Calma 8 Sudoeste 0 961.6 -0.3 87
2020-03-21 07:00:00 4.8 3 Sudeste 11 Sudoeste 0 961.6 -0.3 87
2020-03-21 06:00:00 6 3 Sur 9 Oeste 0 961.8 -0.3 82
2020-03-21 05:00:00 6.4 3 Este 21 Sur 0 961.9 -0.6 84
2020-03-21 04:00:00 7.3 2 Nordeste 8 Nordeste 0 961.9 -0.9 80
2020-03-21 03:00:00 7.5 0 Calma 17 Sur 0 962.1 -1.1 79
2020-03-21 02:00:00 8.3 6 Sudeste 21 Sur 0 962.5 -0.8 77
2020-03-21 01:00:00 8.8 18 Sur 24 Sur 0 962.8 -0.4 77
2020-03-21 00:00:00 9 10 Sur 17 Sur 0 963.2 0.1 73
2020-03-20 23:00:00 10.2 9 Sudeste 15 Sudeste 0 963.3 0.3 68
2020-03-20 22:00:00 10.2 7 Sudoeste 13 Sudoeste 0 963.2 0.3 68
2020-03-20 21:00:00 10.5 2 Nordeste 15 Sur 0 963.1 0.2 67
2020-03-20 20:00:00 11.3 13 Sur 21 Sur 0 963 0.1 66
2020-03-20 19:00:00 13.1 15 Sur 32 Sur 0 962.9 -0.1 57
2020-03-20 18:00:00 15 23 Sur 37 Sudoeste 0 962.9 -0.4 51
2020-03-20 17:00:00 15.1 26 Sur 39 Sudoeste 0 962.9 -0.7 52
2020-03-20 16:00:00 16.8 24 Sur 39 Sur 0 963 -1.3 47
2020-03-20 15:00:00 16.5 23 Sur 42 Sur 0 963.3 -1.9 51
2020-03-20 14:00:00 16.1 15 Sur 33 Sudoeste 0 963.6 -1.9 51
2020-03-20 13:00:00 15.1 23 Sur 35 Sur 0 964.3 -1.5 57
2020-03-20 12:00:00 14.6 19 Sur 32 Sur 0 965.2 -0.4 55
2020-03-20 11:00:00 13.5 12 Sur 22 Sur 0 965.5 0 57
2020-03-20 10:00:00 10.2 5 Norte 11 Nordeste 0 965.8 0.6 71
2020-03-20 09:00:00 7.4 3 Noroeste 9 Nordeste 0 965.6 0.4 86
2020-03-20 08:00:00 4.3 2 Este 9 Este 0 965.5 0.3 93
2020-03-20 07:00:00 3.9 0 Calma 9 Sudeste 0 965.2 0.3 94
2020-03-20 06:00:00 4.5 4 Oeste 8 Oeste 0 965.2 0.1 92
2020-03-20 05:00:00 4.9 4 Este 11 Sudeste 0 965.2 -0.2 91
2020-03-20 04:00:00 5.7 4 Noroeste 11 Noroeste 0 964.9 -0.7 87
2020-03-20 03:00:00 7.1 5 Noroeste 11 Oeste 0 965.1 -0.7 85
2020-03-20 02:00:00 9.2 5 Este 9 Norte 0 965.4 -0.5 78
2020-03-20 01:00:00 9.7 0 Calma 11 Norte 0 965.6 -0.3 78
2020-03-20 00:00:00 10.9 3 Nordeste 37 Sudeste 0 965.8 0 71
2020-03-19 23:00:00 10.8 6 Sudeste 24 Este 0 965.9 0.4 69
2020-03-19 22:00:00 11.2 9 Sudeste 22 Sur 0 965.9 0.5 64
2020-03-19 21:00:00 12 15 Sur 22 Sur 0 965.8 0.5 59
2020-03-19 20:00:00 12.7 15 Sur 24 Sur 0 965.5 -0.1 63
2020-03-19 19:00:00 14.3 21 Sur 24 Sur 0 965.4 -0.6 49
2020-03-19 18:00:00 16.1 17 Sur 30 Sur 0 965.3 -1.3 54
2020-03-19 17:00:00 17.1 20 Sur 32 Sur 0 965.6 -1.8 58
2020-03-19 16:00:00 16.8 19 Sudoeste 33 Sur 0 966 -2.1 61
2020-03-19 15:00:00 17.7 16 Sudoeste 30 Sudoeste 0 966.6 -2.2 59
2020-03-19 14:00:00 17.9 19 Sur 28 Sur 0 967.4 -2.1 60
2020-03-19 13:00:00 17.5 15 Sudoeste 28 Sur 0 968.1 -1.6 59
2020-03-19 12:00:00 17 16 Sudoeste 26 Sur 0 968.8 -0.8 64
2020-03-19 11:00:00 14.5 3 Oeste -- -- -- 969.5 0 76
2020-03-19 10:00:00 11.6 2 Nordeste 8 Nordeste 0 969.7 0.2 86
2020-03-19 09:00:00 8.1 0 Calma 5 Sur 0 969.6 0.2 97
2020-03-19 08:00:00 5.6 3 Sur 5 Sur 0 969.5 0.1 97
2020-03-19 07:00:00 5.5 3 Sudoeste 5 Sudoeste 0 969.5 -0.1 97
2020-03-19 06:00:00 5.8 5 Este 9 Sur 0 969.4 -0.9 96
2020-03-19 05:00:00 6.4 -- -- -- -- 0 969.4 -1.4 97
2020-03-19 04:00:00 7.2 3 Sudeste -- -- 0 969.6 -1.4 97
2020-03-19 03:00:00 7.1 4 Sur 5 Sudeste 0 970.3 -0.8 95
2020-03-19 02:00:00 7.7 4 Nordeste 5 Nordeste 0 970.8 -0.5 96
2020-03-19 01:00:00 8 4 Sudeste 11 Sur 0 971 -0.5 93
2020-03-19 00:00:00 8.6 3 Sur 9 Sudeste 0 971.1 -0.2 91
2020-03-18 23:00:00 9.7 4 Este 8 Sudeste 0 971.3 -0.1 90
2020-03-18 22:00:00 10.1 0 Calma 11 Sudeste 0 971.5 0.4 88
2020-03-18 21:00:00 10.8 4 Este 9 Nordeste 0 971.3 0.4 86
2020-03-18 20:00:00 12.1 4 Norte 13 Oeste 0 971.4 0.4 82
2020-03-18 19:00:00 14.4 5 Sudoeste 11 Oeste 0 971.1 -0.4 72
2020-03-18 18:00:00 16.3 9 Oeste 15 Sur 0 970.9 -1 66
2020-03-18 17:00:00 18 4 Oeste 11 Sudoeste 0 971 -1.7 57
2020-03-18 16:00:00 17.6 7 Noroeste 13 Noroeste 0 971.5 -2.1 61
2020-03-18 15:00:00 17 5 Nordeste 13 Nordeste 0 971.9 -2.4 66
2020-03-18 14:00:00 16.3 4 Noroeste 9 Noroeste 0 972.7 -2.1 68
2020-03-18 13:00:00 14.4 3 Norte 8 Nordeste 0 973.6 -1.5 74
2020-03-18 12:00:00 11.1 3 Este 8 Este 0 974.3 -0.6 86
2020-03-18 11:00:00 8.8 4 Noroeste 9 Norte 0 974.8 0 97
2020-03-18 10:00:00 7.5 3 Noroeste 8 Oeste 0 975.1 0.4 98
2020-03-18 09:00:00 6.9 2 Oeste 5 Sudoeste 0 974.9 0.2 99
2020-03-18 08:00:00 6.2 3 Sur 5 Sudoeste 0 974.8 0.1 99
2020-03-18 07:00:00 5.4 0 Calma 5 Sudoeste 0 974.7 -0.1 99
2020-03-18 06:00:00 5.3 2 Sudeste 9 Sur 0 974.7 -0.7 98
2020-03-18 05:00:00 5.6 7 Sur -- -- 0 974.7 -1 98
2020-03-18 04:00:00 5.1 4 Sudeste 8 Sudeste 0 974.8 -1.1 98
2020-03-18 03:00:00 5.2 3 Sudeste -- -- -- 975.4 -0.8 98
2020-03-18 02:00:00 5.5 2 Sur 5 Sur 0 975.7 -0.7 97
2020-03-18 01:00:00 6.4 0 Calma 4 Sur 0 975.9 -0.3 97
2020-03-18 00:00:00 7.2 0 Calma 8 Sur 0 976.2 0.2 97
2020-03-17 23:00:00 7.4 -- -- -- -- 0 976.4 1 96
2020-03-17 22:00:00 8.5 2 Este 5 Sur 0 976.2 1 95
2020-03-17 21:00:00 8.9 6 Sudeste 9 Sur 0 976 1 93
2020-03-17 20:00:00 9.8 8 Sudeste 9 Sur 0 975.4 0.5 90
2020-03-17 19:00:00 11.3 3 Oeste -- -- 0 975.2 0.4 85
2020-03-17 18:00:00 12.2 6 Oeste 9 Oeste 0 975 0.1 81
2020-03-17 17:00:00 12.3 5 Oeste 11 Oeste 0 974.9 -0.2 80
2020-03-17 16:00:00 11.7 8 Oeste 11 Oeste 0 974.8 -0.4 82
2020-03-17 15:00:00 12.3 3 Oeste 9 Oeste 0 974.9 -0.2 74
2020-03-17 14:00:00 11.6 2 Norte 8 Noroeste 0 975.1 0.5 78
2020-03-17 13:00:00 10.9 2 Oeste 8 Sudeste 0 975.2 0.9 82
2020-03-17 12:00:00 10.4 5 Este 11 Norte 0 975.1 1.1 84
2020-03-17 11:00:00 10 0 Calma 5 Nordeste 0 974.6 1.4 86
2020-03-17 10:00:00 10 4 Noroeste 8 Noroeste 0 974.3 1.6 84
2020-03-17 09:00:00 9.3 5 Noroeste 13 Noroeste 0 974 1.9 87
2020-03-17 08:00:00 8.9 9 Noroeste 17 Noroeste 0 973.2 1.7 88
2020-03-17 07:00:00 8.7 14 Noroeste 21 Noroeste 0 972.7 1.6 88
2020-03-17 06:00:00 8.8 13 Noroeste 18 Noroeste 0 972.1 0.9 89
2020-03-17 05:00:00 8.7 11 Noroeste 17 Norte 0 971.5 0.4 89
2020-03-17 04:00:00 8.8 11 Noroeste 17 Noroeste 0 971.1 0.2 88
2020-03-17 03:00:00 8.8 12 Noroeste 18 Noroeste 0 971.2 0.5 87
2020-03-17 02:00:00 8.6 13 Noroeste 24 Noroeste 0 971.1 0.9 88
2020-03-17 01:00:00 8.7 19 Noroeste 28 Noroeste 0 970.9 1.6 87
2020-03-17 00:00:00 8.5 16 Noroeste 24 Noroeste 0 970.7 2.5 88
2020-03-16 23:00:00 8.4 15 Noroeste 28 Noroeste 0 970.2 2.6 87
2020-03-16 22:00:00 8.3 18 Noroeste 24 Norte 0 969.3 2.6 87
2020-03-16 21:00:00 8.2 19 Noroeste 30 Noroeste 0 968.2 2.2 87
2020-03-16 20:00:00 8.3 17 Noroeste 30 Noroeste 0 967.6 1.9 87
2020-03-16 19:00:00 8.2 17 Norte 30 Norte 0 966.7 1.7 87
2020-03-16 18:00:00 8.2 21 Noroeste 33 Norte 0 966 1.2 86
2020-03-16 17:00:00 8.3 21 Norte 30 Noroeste 0 965.7 0.9 86
2020-03-16 16:00:00 8.3 20 Noroeste 32 Noroeste 0 965 0.7 87
2020-03-16 15:00:00 8 14 Noroeste 21 Noroeste 0 964.8 1.2 91
2020-03-16 14:00:00 8 8 Noroeste 24 Noroeste 0.5 964.8 1.9 93
2020-03-16 13:00:00 7.3 6 Oeste 15 Norte 0.3 964.3 2 93
2020-03-16 12:00:00 7 12 Norte 17 Noroeste 0.6 963.6 1.9 90
2020-03-16 11:00:00 6.2 8 Noroeste 22 Noroeste 0.8 962.9 1.5 95
2020-03-16 10:00:00 5.4 17 Noroeste 22 Noroeste 1.7 962.3 1.9 93
2020-03-16 09:00:00 4.9 12 Noroeste 18 Noroeste 2.2 961.7 1.5 93
2020-03-16 08:00:00 5 9 Oeste 13 Oeste 2 961.4 1.7 94
2020-03-16 07:00:00 5.2 10 Noroeste 13 Noroeste 1.9 960.4 0.9 94
2020-03-16 06:00:00 5.4 8 Oeste 13 Noroeste 3.1 960.2 0.5 94
2020-03-16 05:00:00 5.7 5 Oeste 15 Norte 0.8 959.7 -0.1 91
2020-03-16 04:00:00 5.6 8 Oeste 13 Oeste 1.3 959.5 -0.2 95
2020-03-16 03:00:00 5.8 12 Noroeste 24 Noroeste 0.7 959.7 -0.4 92
2020-03-16 02:00:00 6.3 11 Noroeste 22 Norte 1.2 959.8 -0.2 91
2020-03-16 01:00:00 7 13 Noroeste 18 Noroeste 3.5 959.7 0.3 95
2020-03-16 00:00:00 7.2 14 Oeste 21 Oeste 4.2 960.1 2.1 97
2020-03-15 23:00:00 7.8 9 Noroeste 18 Noroeste 1.5 960 2.9 96
2020-03-15 22:00:00 7.7 11 Noroeste 37 Noroeste 6.9 959.4 2.9 97
2020-03-15 21:00:00 9.1 24 Noroeste 35 Oeste 3.3 958 1.2 94
2020-03-15 20:00:00 11.5 15 Noroeste 28 Noroeste 1 957.1 -0.4 90
2020-03-15 19:00:00 13.9 3 Sur 15 Este 0.5 956.5 -1.2 76
2020-03-15 18:00:00 16.3 0 Calma 22 Sur 0 956.8 -1.4 58
2020-03-15 17:00:00 17.4 16 Sur 26 Sur 0 957.5 -1.9 55
2020-03-15 16:00:00 18.2 14 Sur 24 Sur 0 957.7 -3 50
2020-03-15 15:00:00 20.8 9 Sur 17 Sur 0 958.2 -3.8 41
2020-03-15 14:00:00 19.8 10 Sur 17 Sur 0 959.4 -3.4 42
2020-03-15 13:00:00 17.2 4 Nordeste 13 Sur 0 960.7 -2.9 48
2020-03-15 12:00:00 14.5 5 Noroeste 11 Noroeste 0 962 -1.6 57
2020-03-15 11:00:00 11.1 4 Nordeste 11 Norte 0 962.8 -0.8 66
2020-03-15 10:00:00 7.5 2 Nordeste 8 Nordeste 0 963.6 -0.1 75
2020-03-15 09:00:00 4.1 3 Este 5 Este 0 963.6 -0.4 84
2020-03-15 08:00:00 -0.1 4 Sur 9 Sur 0 963.6 -0.6 94
2020-03-15 07:00:00 -0.9 2 Sudoeste 5 Oeste 0 963.7 -1 94
2020-03-15 06:00:00 0.1 0 Calma 4 Sur 0 964 -1.3 93
2020-03-15 05:00:00 0.1 0 Calma 4 Sudoeste 0 964.2 -1.5 94
2020-03-15 04:00:00 0.6 0 Calma 5 Sur 0 964.7 -1.5 93
2020-03-15 03:00:00 1 0 Calma 5 Sudoeste 0 965.3 -1.3 93
2020-03-15 02:00:00 1.8 0 Calma 8 Nordeste 0 965.7 -1.1 92
2020-03-15 01:00:00 2.4 0 Calma 9 Sur 0 966.2 -0.7 90
2020-03-15 00:00:00 3.4 6 Sur 11 Sur 0 966.6 -0.4 88
2020-03-14 23:00:00 4.3 6 Este 9 Nordeste 0 966.8 0 86
2020-03-14 22:00:00 6 2 Norte 9 Nordeste 0 966.9 0 80
2020-03-14 21:00:00 7.5 4 Este 13 Nordeste 0 967 0.2 74
2020-03-14 20:00:00 8.9 7 Nordeste 22 Norte 0 966.8 -0.2 67
2020-03-14 19:00:00 10.7 13 Nordeste 22 Nordeste 0 966.9 -0.4 62
2020-03-14 18:00:00 12.5 12 Norte 28 Norte 0 966.8 -1 55
2020-03-14 17:00:00 13.3 19 Norte 30 Norte 0 967 -1.5 52
2020-03-14 16:00:00 13.5 22 Norte 28 Norte 0 967.3 -1.8 51
2020-03-14 15:00:00 13.8 20 Norte 32 Norte 0 967.8 -1.5 53
2020-03-14 14:00:00 13.5 18 Norte 33 Norte 0 968.5 -1.3 52
2020-03-14 13:00:00 13 21 Norte 33 Norte 0 969.1 -0.7 52
2020-03-14 12:00:00 12.4 21 Norte 33 Norte 0 969.3 -0.2 53
2020-03-14 11:00:00 10.7 22 Norte 37 Norte 0 969.8 0.6 58
2020-03-14 10:00:00 9.1 15 Norte 24 Norte 0 969.8 1.1 66
2020-03-14 09:00:00 6.7 14 Norte 22 Noroeste 0 969.5 1 79
2020-03-14 08:00:00 2.1 5 Norte 13 Noroeste 0 969.2 1 90
2020-03-14 07:00:00 3.3 10 Norte 17 Norte 0 968.7 0.4 86
2020-03-14 06:00:00 3.4 14 Norte 18 Norte 0 968.5 -0.3 88
2020-03-14 05:00:00 3.1 6 Norte 15 Norte 0 968.2 -0.8 90
2020-03-14 04:00:00 2.6 3 Este 8 Nordeste 0 968.3 -0.9 93
2020-03-14 03:00:00 2.5 3 Este 13 Norte 0 968.8 -0.3 91
2020-03-14 02:00:00 3 0 Calma 8 Este 0 969 -0.2 91
2020-03-14 01:00:00 4.3 4 Noroeste 17 Noroeste 0 969.2 0.6 87
2020-03-14 00:00:00 5 11 Noroeste 17 Noroeste 0 969.1 0.9 85
2020-03-13 23:00:00 5.8 14 Norte 22 Norte 0 969.2 1.1 82
2020-03-13 22:00:00 6.1 11 Noroeste 22 Norte 0 968.6 0.5 83
2020-03-13 21:00:00 6.7 15 Norte 26 Noroeste 0 968.2 0.4 81
2020-03-13 20:00:00 7.2 17 Noroeste 24 Norte 0 968.1 0.2 78
2020-03-13 19:00:00 8.8 16 Noroeste 24 Noroeste 0 968.1 0.3 72
2020-03-13 18:00:00 8.9 19 Noroeste 37 Noroeste 0 967.8 -0.2 73
2020-03-13 17:00:00 9 26 Noroeste 35 Noroeste 0 967.9 -0.5 75
2020-03-13 16:00:00 9.7 26 Noroeste 35 Noroeste 0 967.8 -1 75
2020-03-13 15:00:00 10.4 28 Noroeste 39 Noroeste 0 968 -1 72
2020-03-13 14:00:00 11.3 24 Noroeste 37 Noroeste 0 968.4 -0.7 68
2020-03-13 13:00:00 11 26 Noroeste 35 Noroeste 0 968.8 -0.4 68
2020-03-13 12:00:00 10.8 25 Noroeste 37 Noroeste 0 969 -0.1 70
2020-03-13 11:00:00 10.2 26 Noroeste 39 Noroeste 0 969.1 0.1 73
2020-03-13 10:00:00 9.2 27 Noroeste 35 Noroeste 0 969.2 0.4 77
2020-03-13 09:00:00 7.6 21 Noroeste 30 Noroeste 0 969.1 0.4 84
2020-03-13 08:00:00 7.6 20 Noroeste 33 Norte 0 969 0.4 83
2020-03-13 07:00:00 7.3 20 Noroeste 33 Noroeste 0 968.8 -0.2 83
2020-03-13 06:00:00 7.1 18 Noroeste 32 Noroeste 0 968.7 -0.3 81
2020-03-13 05:00:00 7.4 23 Noroeste 39 Noroeste 0 968.6 -0.7 80
2020-03-13 04:00:00 7.9 26 Noroeste 41 Noroeste 0 969 -0.3 82
2020-03-13 03:00:00 8.7 26 Norte 37 Noroeste 0 969 -0.2 85
2020-03-13 02:00:00 9 25 Noroeste 39 Noroeste 0 969.3 0.1 88
2020-03-13 01:00:00 9 28 Noroeste 41 Noroeste 0 969.3 -0.1 90
2020-03-13 00:00:00 9.8 26 Noroeste 39 Noroeste 0 969.2 0.4 88
2020-03-12 23:00:00 9.9 26 Noroeste 35 Noroeste 0.5 969.2 0.9 89
2020-03-12 22:00:00 9.9 25 Noroeste 37 Norte 1.3 969.4 1.6 91
2020-03-12 21:00:00 10.1 24 Noroeste 39 Norte 0.2 968.8 1.5 90
2020-03-12 20:00:00 10.7 26 Noroeste 39 Norte 0.1 968.3 1.1 86
2020-03-12 19:00:00 11.5 22 Noroeste 37 Noroeste 0 967.8 0.7 81
2020-03-12 18:00:00 12.3 24 Noroeste 37 Noroeste 0 967.3 0.2 79
2020-03-12 17:00:00 13.5 28 Noroeste 45 Noroeste 0 967.2 -0.5 73
2020-03-12 16:00:00 14.3 31 Noroeste 42 Noroeste 0 967.1 -1.2 72
2020-03-12 15:00:00 14.9 28 Norte 39 Norte 0 967.1 -1.6 69
2020-03-12 14:00:00 16.4 23 Noroeste 33 Norte 0 967.7 -1.3 64
2020-03-12 13:00:00 16.4 20 Noroeste 28 Noroeste 0 968.3 -0.9 65
2020-03-12 12:00:00 16.5 15 Noroeste 24 Noroeste 0 968.7 -0.5 65
2020-03-12 11:00:00 15.4 14 Noroeste 21 Noroeste 0 969 0.6 69
2020-03-12 10:00:00 13.7 6 Oeste 15 Noroeste 0 969.2 1.2 75
2020-03-12 09:00:00 11.8 7 Noroeste 18 Noroeste 0 969.2 1.5 84
2020-03-12 08:00:00 9.6 13 Noroeste 21 Noroeste 0 968.4 1.1 93
2020-03-12 07:00:00 8.5 0 Calma 8 Sudoeste 0 968 0.3 91
2020-03-12 06:00:00 8.1 2 Nordeste 5 Noroeste 0 967.7 -0.5 91
2020-03-12 05:00:00 8.2 3 Sudeste 9 Sudeste 0 967.3 -1.1 91
2020-03-12 04:00:00 8.5 -- -- -- -- 0 967.7 -0.9 90
2020-03-12 03:00:00 9 4 Oeste 5 Oeste 0 968.2 -0.4 90
2020-03-12 02:00:00 9.5 0 Calma 5 Oeste 0 968.4 -0.3 85
2020-03-12 01:00:00 9.9 4 Sudoeste 8 Sudoeste 0 968.6 0.1 84
2020-03-12 00:00:00 9.9 0 Calma 8 Sudoeste 0 968.6 0.2 84
2020-03-11 23:00:00 10.4 4 Sur 13 Sur 0 968.7 0.4 80
2020-03-11 22:00:00 10.8 5 Sudeste 11 Sur 0 968.5 0.6 78
2020-03-11 21:00:00 12.3 11 Sur 13 Sur 0 968.4 0.9 74
2020-03-11 20:00:00 15.2 6 Sur 11 Sudoeste 0 968.3 0.8 66
2020-03-11 19:00:00 18.5 9 Sudoeste 13 Sur 0 967.9 0 58
2020-03-11 18:00:00 22.3 6 Sur 13 Sur 0 967.5 -1 42
2020-03-11 17:00:00 22.6 5 Sudeste 9 Sur 0 967.5 -1.8 39
2020-03-11 16:00:00 21.9 5 Sudeste 11 Sudeste 0 967.9 -2.6 41
2020-03-11 15:00:00 21.4 4 Nordeste 9 Noroeste 0 968.5 -2.7 44
2020-03-11 14:00:00 20 3 Nordeste 11 Norte 0 969.3 -2.4 50
2020-03-11 13:00:00 18.3 3 Norte 9 Nordeste 0 970.5 -1.4 54
2020-03-11 12:00:00 15.7 4 Norte 11 Oeste 0 971.2 -0.8 65
2020-03-11 11:00:00 13.2 4 Oeste 9 Sudeste 0 971.7 0 68
2020-03-11 10:00:00 10.4 3 Oeste 8 Oeste 0 971.9 0.3 75
2020-03-11 09:00:00 6.8 0 Calma 8 Sur 0 972 0.6 85
2020-03-11 08:00:00 2.9 6 Sur 8 Sur 0 971.7 0.2 95
2020-03-11 07:00:00 2.6 0 Calma 4 Sudeste 0 971.6 0 94
2020-03-11 06:00:00 2.9 3 Sudeste 4 Sudeste 0 971.4 -0.9 93
2020-03-11 05:00:00 3.2 3 Nordeste -- -- 0 971.5 -1.2 94
2020-03-11 04:00:00 4.2 3 Este 5 Sudeste 0 971.6 -1.3 90
2020-03-11 03:00:00 4.2 0 Calma 5 Este 0 972.3 -0.8 89
2020-03-11 02:00:00 4.8 3 Nordeste 8 Este 0 972.7 -0.3 87
2020-03-11 01:00:00 5.1 6 Este 8 Este 0 972.9 0.3 85
2020-03-11 00:00:00 6.6 3 Este 9 Este 0 973.1 0.8 79
2020-03-10 23:00:00 7.3 4 Este 11 Sudeste 0 973 0.9 78
2020-03-10 22:00:00 8.8 5 Norte 9 Oeste 0 972.6 1.3 80
2020-03-10 21:00:00 9.9 6 Sur 13 Norte 0 972.3 1.5 73
2020-03-10 20:00:00 12.1 10 Norte 21 Norte 0 972.1 1.6 55
2020-03-10 19:00:00 14.7 14 Norte 24 Nordeste 0 971.3 0.7 40
2020-03-10 18:00:00 16.8 17 Norte 24 Nordeste 0 970.8 -0.1 37
2020-03-10 17:00:00 18.3 13 Norte 21 Nordeste 0 970.5 -0.9 34
2020-03-10 16:00:00 18.8 4 Nordeste 8 Nordeste 0 970.6 -1.5 39
2020-03-10 15:00:00 17.6 4 Norte 9 Noroeste 0 970.9 -1.9 43
2020-03-10 14:00:00 16.9 0 Calma 9 Sudoeste 0 971.4 -1.5 50
2020-03-10 13:00:00 14.9 3 Sudoeste 9 Sudoeste 0 972.1 -0.8 56
2020-03-10 12:00:00 12.9 3 Noroeste 8 Oeste 0 972.8 0.2 65
2020-03-10 11:00:00 10.5 3 Nordeste 8 Nordeste 0 972.9 0.6 73
2020-03-10 10:00:00 8.4 5 Norte 9 Norte 0 972.9 0.8 84
2020-03-10 09:00:00 5.5 3 Noroeste 5 Nordeste 0 972.6 0.4 93
2020-03-10 08:00:00 4 3 Este 8 Sudeste 0 972.3 0 95
2020-03-10 07:00:00 3.7 -- -- -- -- 0 972.1 -0.1 95
2020-03-10 06:00:00 3.2 5 Este -- -- 0 972.2 -0.7 95
2020-03-10 05:00:00 3 3 Sudeste 8 Este 0 972.3 -0.7 94
2020-03-10 04:00:00 3.2 5 Este 8 Este 0 972.2 -0.9 94
2020-03-10 03:00:00 4.3 3 Noroeste 9 Sudeste 0 972.9 -0.7 91
2020-03-10 02:00:00 4.8 0 Calma 9 Noroeste 0 973 -0.8 91
2020-03-10 01:00:00 5.1 11 Noroeste 17 Noroeste 0 973.1 -0.6 89
2020-03-10 00:00:00 5.7 15 Noroeste 18 Noroeste 0 973.6 -0.1 89
2020-03-09 23:00:00 5.9 9 Oeste 24 Norte 0 973.8 0.3 89
2020-03-09 22:00:00 7 17 Norte 28 Noroeste 0 973.7 0.4 87
2020-03-09 21:00:00 6.9 12 Noroeste 26 Norte 0 973.7 1 85
2020-03-09 20:00:00 6.7 19 Norte 33 Norte 0 973.5 0.9 87
2020-03-09 19:00:00 6.3 23 Norte 37 Norte 0.4 973.3 1.1 89
2020-03-09 18:00:00 8.2 17 Noroeste 41 Norte 0 972.7 0.2 80
2020-03-09 17:00:00 7.8 23 Noroeste 39 Oeste 0.3 972.6 -0.4 82
2020-03-09 16:00:00 10.4 24 Noroeste 42 Noroeste 0 972.2 -1.3 68
2020-03-09 15:00:00 9.7 18 Noroeste 39 Noroeste 0.1 972.5 -1 87
2020-03-09 14:00:00 9.4 27 Noroeste 46 Noroeste 0.1 973 -0.3 83
2020-03-09 13:00:00 8.8 32 Noroeste 52 Noroeste 0.1 973.5 0.3 79
2020-03-09 12:00:00 10.1 31 Noroeste 48 Noroeste 0 973.5 1.3 63
2020-03-09 11:00:00 9 29 Noroeste 45 Noroeste 0 973.3 1.4 72
2020-03-09 10:00:00 7.3 22 Noroeste 35 Noroeste 0 973.2 1.5 85
2020-03-09 09:00:00 7.9 15 Noroeste 30 Noroeste 0 972.2 0.6 76
2020-03-09 08:00:00 6.7 10 Noroeste 24 Noroeste 0 971.9 0.5 83
2020-03-09 07:00:00 6.6 10 Noroeste 28 Noroeste 0 971.7 0.3 81
2020-03-09 06:00:00 6.8 15 Noroeste 26 Noroeste 0 971.6 0.8 81
2020-03-09 05:00:00 6.8 19 Norte 35 Norte 0 971.4 -0.1 81
2020-03-09 04:00:00 7.2 24 Noroeste 37 Noroeste 0.1 971.4 0.6 83
2020-03-09 03:00:00 7.7 6 Noroeste 35 Norte 0 970.8 -0.4 79
2020-03-09 02:00:00 7.6 13 Noroeste 32 Norte 0 971.5 0.4 86
2020-03-09 01:00:00 8.3 18 Norte 33 Norte 0 970.8 0.1 78
2020-03-09 00:00:00 8.7 5 Norte 18 Nordeste 0 971.2 0.9 79